createdAt,value
2022-09-21T02:19:07.683Z,2.65
2022-09-21T02:24:04.967Z,2.35
2022-09-21T02:29:04.394Z,2.10
2022-09-21T02:34:02.581Z,4.88
2022-09-21T02:38:57.562Z,4.95
2022-09-21T02:43:52.244Z,3.38
2022-09-21T02:48:50.220Z,3.38
2022-09-21T02:53:43.547Z,6.10
2022-09-21T02:58:34.966Z,2.90
2022-09-21T06:13:08.763Z,7.97
2022-09-21T06:18:01.946Z,4.88
2022-09-21T06:22:52.961Z,6.40
2022-09-21T06:27:42.683Z,7.60
2022-09-21T06:32:32.342Z,12.57
2022-09-21T06:37:25.945Z,10.57
2022-09-21T06:42:15.826Z,7.90
2022-09-21T06:47:06.709Z,6.15
2022-09-21T06:51:59.402Z,4.97
2022-09-21T06:56:59.908Z,5.75
2022-09-21T07:01:50.981Z,5.80
2022-09-21T07:06:43.303Z,5.95
2022-09-21T07:11:33.798Z,7.25
2022-09-21T07:16:29.660Z,8.77
2022-09-21T07:21:22.307Z,8.27
2022-09-21T07:26:14.274Z,9.75
2022-09-21T07:31:09.311Z,8.40
2022-09-21T07:36:01.586Z,9.18
2022-09-21T07:40:51.420Z,5.28
2022-09-21T07:45:42.581Z,4.55
2022-09-21T07:50:33.701Z,4.22
2022-09-21T07:55:25.890Z,5.03
2022-09-21T08:00:16.105Z,2.55
2022-09-21T08:05:06.191Z,2.72
2022-09-21T08:09:55.869Z,3.58
2022-09-21T08:14:48.511Z,2.58
2022-09-21T08:19:38.493Z,1.90
2022-09-21T08:24:29.318Z,2.92
2022-09-21T08:29:19.188Z,2.40
2022-09-21T08:34:11.585Z,2.85
2022-09-21T08:39:01.263Z,1.55
2022-09-21T08:43:55.168Z,1.83
2022-09-21T08:48:49.155Z,1.77
2022-09-21T08:53:45.050Z,2.53
2022-09-21T08:58:35.834Z,3.65
2022-09-21T09:03:46.159Z,3.17
2022-09-21T09:09:17.148Z,2.10
2022-09-21T09:14:18.849Z,1.90
2022-09-21T09:19:21.970Z,2.60
2022-09-21T09:24:21.405Z,2.55
2022-09-21T09:29:21.611Z,1.10
2022-09-21T09:34:16.158Z,1.90
2022-09-21T09:39:13.256Z,3.15
2022-09-21T09:44:19.345Z,2.85
2022-09-21T09:49:56.825Z,2.10
2022-09-21T09:54:48.251Z,1.15
2022-09-21T09:59:50.471Z,3.03
2022-09-21T10:05:03.860Z,2.07
2022-09-21T10:09:53.622Z,2.40
2022-09-21T10:14:52.542Z,1.52
2022-09-21T10:19:42.331Z,2.85
2022-09-21T10:24:34.509Z,2.30
2022-09-21T10:29:35.068Z,2.03
2022-09-21T10:34:31.253Z,1.30
2022-09-21T10:39:30.133Z,1.40
2022-09-21T10:44:23.283Z,1.25
2022-09-21T10:49:23.323Z,2.63
2022-09-21T10:54:29.501Z,1.30
2022-09-21T10:59:26.969Z,2.30
2022-09-21T11:04:28.642Z,1.80
2022-09-21T11:09:29.911Z,0.98
2022-09-21T11:14:39.922Z,1.83
2022-09-21T11:19:39.904Z,1.83
2022-09-21T11:24:40.383Z,1.42
2022-09-21T11:29:45.662Z,1.45
2022-09-21T11:34:51.604Z,1.52
2022-09-21T11:40:06.907Z,0.70
2022-09-21T11:45:02.095Z,0.40
2022-09-21T11:50:33.918Z,1.30
2022-09-21T11:55:51.539Z,1.05
2022-09-21T12:00:52.712Z,1.77
2022-09-21T12:05:51.829Z,3.78
2022-09-21T12:10:57.687Z,1.60
2022-09-21T12:15:57.547Z,1.02
2022-09-21T12:20:57.396Z,1.70
2022-09-21T12:25:54.858Z,0.70
2022-09-21T12:31:00.240Z,1.15
2022-09-21T12:35:56.828Z,0.68
2022-09-21T12:40:56.135Z,1.30
2022-09-21T12:45:56.816Z,1.13
2022-09-21T12:50:55.819Z,2.70
2022-09-21T12:56:02.452Z,1.70
2022-09-21T13:01:03.641Z,1.10
2022-09-21T13:06:16.450Z,1.57
2022-09-21T13:11:21.481Z,1.05
2022-09-21T13:16:29.397Z,2.60
2022-09-21T13:21:28.525Z,0.70
2022-09-21T13:26:37.292Z,0.95
2022-09-21T13:32:05.984Z,1.73
2022-09-21T13:37:41.418Z,1.30
2022-09-21T13:42:52.808Z,1.33
2022-09-21T13:47:45.909Z,1.42
2022-09-21T13:52:44.597Z,1.00
2022-09-21T13:57:39.963Z,1.80
2022-09-21T14:02:39.001Z,2.08
2022-09-21T14:07:34.362Z,1.37
2022-09-21T14:12:28.519Z,1.33
2022-09-21T14:17:40.381Z,1.40
2022-09-21T14:22:43.154Z,1.40
2022-09-21T14:27:46.111Z,2.30
2022-09-21T14:32:48.445Z,0.45
2022-09-21T14:37:43.427Z,1.65
2022-09-21T14:42:34.973Z,1.40
2022-09-21T14:47:52.822Z,1.65
2022-09-21T14:52:56.784Z,1.75
2022-09-21T14:58:01.557Z,2.10
2022-09-21T15:03:09.923Z,0.77
2022-09-21T15:08:44.699Z,0.73
2022-09-21T15:14:05.289Z,1.00
2022-09-21T15:19:12.320Z,0.90
2022-09-21T15:24:15.012Z,0.80
2022-09-21T15:29:10.555Z,2.08
2022-09-21T15:34:04.772Z,1.37
2022-09-21T15:39:00.118Z,1.48
2022-09-21T15:43:58.550Z,1.30
2022-09-21T15:48:51.245Z,2.80
2022-09-21T15:53:48.455Z,1.33
2022-09-21T15:58:42.752Z,1.20
2022-09-21T16:03:34.336Z,1.45
2022-09-21T16:08:32.144Z,2.35
2022-09-21T16:13:39.724Z,1.07
2022-09-21T16:18:43.371Z,1.40
2022-09-21T16:23:35.286Z,1.70
2022-09-21T16:28:40.081Z,1.20
2022-09-21T16:34:04.038Z,1.25
2022-09-21T16:38:56.699Z,2.28
2022-09-21T16:43:51.350Z,1.23
2022-09-21T16:48:41.430Z,2.70
2022-09-21T16:53:31.392Z,1.87
2022-09-21T16:58:22.965Z,1.67
2022-09-21T17:03:16.923Z,2.08
2022-09-21T17:08:07.778Z,0.60
2022-09-21T17:12:58.417Z,1.40
2022-09-21T17:17:48.962Z,1.27
2022-09-21T17:22:41.822Z,1.25
2022-09-21T17:27:32.206Z,2.03
2022-09-21T17:32:26.485Z,2.30
2022-09-21T17:37:17.204Z,1.08
2022-09-21T17:42:22.277Z,2.13
2022-09-21T17:47:21.983Z,2.10
2022-09-21T17:52:31.922Z,2.33
2022-09-21T17:57:40.291Z,1.58
2022-09-21T18:02:31.203Z,1.50
2022-09-21T18:07:23.840Z,1.88
2022-09-21T18:12:38.027Z,1.63
2022-09-21T18:17:49.070Z,1.95
2022-09-21T18:22:51.742Z,1.73
2022-09-21T18:27:49.080Z,2.30
2022-09-21T18:33:04.498Z,2.25
2022-09-21T18:38:06.393Z,2.50
2022-09-21T18:43:09.537Z,1.90
2022-09-21T18:48:25.119Z,2.47
2022-09-21T18:53:26.686Z,2.95
2022-09-21T18:58:19.960Z,2.20
2022-09-21T19:03:19.649Z,1.30
2022-09-21T19:08:16.571Z,1.35
2022-09-21T19:13:24.699Z,2.38
2022-09-21T19:18:22.098Z,2.42
2022-09-21T19:23:25.637Z,2.05
2022-09-21T19:28:42.749Z,1.33
2022-09-21T19:33:51.547Z,2.33
2022-09-21T19:38:43.173Z,2.17
2022-09-21T19:43:43.415Z,1.95
2022-09-21T19:48:44.041Z,2.00
2022-09-21T19:53:48.026Z,2.80
2022-09-21T19:58:54.347Z,2.63
2022-09-21T20:03:49.162Z,2.15
2022-09-21T20:08:50.018Z,2.58
2022-09-21T20:14:02.876Z,2.15
2022-09-21T20:18:59.209Z,2.50
2022-09-21T20:23:52.287Z,2.90
2022-09-21T20:28:43.965Z,1.92
2022-09-21T20:33:36.835Z,2.40
2022-09-21T20:38:27.604Z,3.40
2022-09-21T20:43:20.157Z,3.73
2022-09-21T20:48:20.203Z,3.13
2022-09-21T20:53:14.491Z,2.25
2022-09-21T20:58:08.401Z,2.90
2022-09-21T21:03:00.667Z,2.67
2022-09-21T21:07:53.490Z,3.63
2022-09-21T21:12:46.782Z,3.10
2022-09-21T21:17:38.284Z,3.50
2022-09-21T21:22:29.110Z,2.90
2022-09-21T21:27:21.134Z,2.53
2022-09-21T21:32:14.187Z,2.45
2022-09-21T21:37:04.801Z,3.05
2022-09-21T21:41:55.288Z,2.85
2022-09-21T21:46:53.608Z,2.78
2022-09-21T21:51:49.132Z,2.08
2022-09-21T21:56:39.673Z,3.53
2022-09-21T22:01:32.626Z,3.25
2022-09-21T22:06:23.797Z,3.03
2022-09-21T22:11:17.944Z,2.28
2022-09-21T22:16:11.555Z,3.42
2022-09-21T22:21:08.234Z,2.27
2022-09-21T22:26:06.016Z,1.67
2022-09-21T22:30:59.204Z,4.20
2022-09-21T22:35:49.615Z,4.05
2022-09-21T22:40:39.882Z,3.87
2022-09-21T22:45:31.324Z,3.55
2022-09-21T22:50:24.887Z,3.03
2022-09-21T22:55:15.354Z,4.25
2022-09-21T23:00:06.971Z,3.38
2022-09-21T23:04:57.726Z,6.60
2022-09-21T23:09:51.112Z,4.47
2022-09-21T23:14:41.744Z,3.13
2022-09-21T23:19:32.158Z,4.38
2022-09-21T23:24:23.550Z,4.93
2022-09-21T23:29:18.316Z,4.70
2022-09-21T23:34:14.949Z,3.33
2022-09-21T23:39:06.907Z,4.03
2022-09-21T23:43:58.376Z,3.42
2022-09-21T23:48:52.553Z,2.90
2022-09-21T23:53:43.354Z,3.40
2022-09-21T23:58:33.755Z,3.57
